Welcome to our Virtual Airline
Sign-in:

Flight MFC621

  • Submitted By: Norm Richards
  • Departure Airport: Point Baker SPB (KPB)
  • Arrival Airport: Cape Pole SPB (Z71)
  • Aircraft: C185F (NC185MM)
  • Flight Time: 00.17.50
  • Date Submitted: 2018/03/17
  • Route: FOLLOW THE TOUR FP
  • Status: Accepted
Flight Details
Gross Revenue:
(3 load / $ 49.00 per unit
$ 147.00
Fuel Cost:
(25.4012 fuel used @ 5.1 / unit)
$ 129.55

Additional Log Information:

View Log

[07:41] ----- Flight Opened -----
[07:41] Cigar Box - 1.1.2.0
[07:41] FS: Prepar3D V4
[07:41] FSUIPC: v5.121
[07:41] Flight Number: MFC621
[07:41] FS Aircraft: DHC2 Beaver Amphibian N001MM New Misty
[07:41] FS Model: DHC2
[07:41] FS Type: DeHavilland
[07:41] Departure: KPB
[07:41] Arrival: Z71
[07:41] Flight Level: 1500
[07:41] Flight Type: H
[07:41] Passengers: 3
[07:41] FOB: 420 lbs
[07:41] Gate: n/a
[07:41] Crash Detection: Disabled
[07:41] Crash Detection Aircraft: Disabled
[07:41] Engines: 1 Piston
[07:41] NOTE: Boarding has started
[07:41] Parking Brake: Engaged
[07:41] Landing Gear: Retracted
[07:41] Light Data: Navigation ON
[07:41] Light Data: Beacon ON
[07:41] Light Data: Landing lights ON
[07:41] Light Data: Taxi lights ON
[07:41] Light Data: Strobe lights ON
[07:41] Light Data: Instrument lights ON
[07:41] Light Data: Recognition lights ON
[07:41] Light Data: Wing lights ON
[07:41] Light Data: Logo lights ON
[07:41] Light Data: Cabin lights ON
[07:41] Main Door Closed
[07:41] COM1: 118.75
[07:41] COM2: 127.80
[07:41] Transponder: 1200
[07:41] NAV1: 115.90
[07:41] NAV2: 110.60
[07:41] ADF1: 890.0
[07:41] ADF2: 240.0
[07:41] Navigation Mode: GPS
[07:41] Navigation Mode: GPS
[07:41] Engine 1: Started
[07:42] Parking Brake: Released
[07:42] NOTE: Pushing back
[07:44] NOTE: Taxi started
[07:44] Flaps: Position 1
[07:44] NOTE: ----- TAKE OFF -----
[07:44] GS: 75 knots
[07:44] TAS: 77 knots
[07:44] IAS: 77 knots
[07:44] VS: 7 fpm
[07:44] FOB: 419 lbs
[07:44] Heading: 337°
[07:44] Pitch: 1°
[07:44] Bank: 0°
[07:44] Aircraft Weight: 4189.23 lbs
[07:44] Nearest Airport: KPB
[07:44] Distance: 0.34 miles
[07:44] Runway: ???
[07:44] Ground Surface: Water
[07:44] Ground Condition: Normal
[07:44] NOTE: Weather Report
[07:44] Wind Heading: 338°
[07:44] Wind Speed: 0 knots
[07:44] OAT: 20° C
[07:44] TAT: 21° C
[07:44] Precipitation: None
[07:44] Dew Point: 10° C
[07:44] Visibility: 62 miles
[07:44] METAR: KPBF 171119Z AUTO 22009KT 9SM FEW006 18/17 A2986 RMK AO2 T01780167KPBG 171053Z AUTO VRB04KT 10SM CLR M05/M14 A2967 RMK AO2 SLP049 T10501144KPBH 171135Z AUTO 00000KT 10SM CLR M13/M14 A2998 RMK AO2 T11291141KPBI 171053Z 00000KT 10SM FEW020 15/14 A3008 RMK AO2 SLP184 T01500139KPBX 171135Z AUTO 16005KT 10SM -RA BKN020 BKN028 OVC050 03/01 A2986 RMK AO2 LTG DSNT S T00340007
[07:44] NOTE: Climb started
[07:45] Flaps: Position 0
[07:45] GS: 114 knots
[07:45] TAS: 115 knots
[07:45] IAS: 114 knots
[07:45] VS: 754 fpm
[07:45] View Mode: Virtual Cockpit
[07:47] NOTE: TOC reached
[07:47] NOTE: Cruise started
[07:47] GS: 124 knots
[07:47] TAS: 126 knots
[07:47] IAS: 119 knots
[07:47] VS: 181 fpm
[07:47] FOB: 404 lbs
[07:47] Heading: 144°
[07:47] Pitch: 0°
[07:47] Bank: -23°
[07:47] Aircraft Weight: 4174.67 lbs
[07:51] Recovery: Flight Saved
[07:57] NOTE: TOD reached
[07:57] NOTE: Descent started
[07:57] GS: 147 knots
[07:57] TAS: 148 knots
[07:57] IAS: 144 knots
[07:57] VS: -946 fpm
[07:57] FOB: 367 lbs
[07:57] Heading: 162°
[07:57] Pitch: 3°
[07:57] Bank: 0°
[07:57] Aircraft Weight: 4137.38 lbs
[07:57] NOTE: On approach
[07:59] Flaps: Position 1
[07:59] GS: 89 knots
[07:59] TAS: 89 knots
[07:59] IAS: 88 knots
[07:59] VS: -566 fpm
[07:59] Flaps: Position 2
[07:59] GS: 71 knots
[07:59] TAS: 72 knots
[07:59] IAS: 72 knots
[07:59] VS: -481 fpm
[07:59] NOTE: ----- LANDED -----
[07:59] Landing Rate: -176.86 fpm
[07:59] GS: 54 knots
[07:59] TAS: 55 knots
[07:59] IAS: 55 knots
[07:59] VS: -179 fpm
[07:59] FOB: 364 lbs
[07:59] Heading: 127°
[07:59] Pitch: 2°
[07:59] Bank: 0°
[07:59] Aircraft Weight: 4134.68 lbs
[07:59] Nearest Airport: Z71
[07:59] Distance: 0.18 miles
[07:59] Runway: ???
[07:59] Ground Surface: Water
[07:59] Ground Condition: Normal
[07:59] NOTE: Weather Report
[07:59] Wind Heading: 338°
[07:59] Wind Speed: 0 knots
[07:59] OAT: 21° C
[07:59] TAT: 21° C
[07:59] Precipitation: None
[07:59] Dew Point: 10° C
[07:59] Visibility: 62 miles
[07:59] METAR: No METAR available for Z71.
[07:59] View Mode: Virtual Cockpit
[07:59] NOTE: Taxi started
[07:59] NOTE: Arrived
[07:59] Parking Brake: Engaged
[07:59] Engine 1: Stopped
[08:00] Gate: n/a
[08:00] NOTE: Flight Completed
[08:00] FS Aircraft: DHC2 Beaver Amphibian N001MM New Misty
[08:00] FS Model: DHC2
[08:00] FS Type: DeHavilland
[08:00] FOB: 364 lbs
[08:00] Fuel Used: 56 lbs
[08:00] Flight Time: 00:17:50
[08:00] Flight Time (Dawn): 00:00:27
[08:00] Flight Time (Day): 00:17:23
[08:00] Flight Time (Dusk): 00:00:00
[08:00] Flight Time (Night): 00:00:00
[08:00] Total Landings: 1
[08:00] MaxSim Rate: 0x
[08:00] Cigar Box - 1.1.2.0
[08:00] ----- Flight Closed -----

Route Map